Time;durP1;ratioP1;P1;durP2;ratioP2;P2;SDS_P1;SDS_P2;PMS_P1;PMS_P2;Temp;Humidity;BMP_temperature;BMP_pressure;BME280_temperature;BME280_humidity;BME280_pressure;Samples;Min_cycle;Max_cycle;Signal;HPM_P1;HPM_P2
2022/11/28 00:01:28;;;;;;;;;;;6.90;99.90;;;;;;5052898;28;20035;-75
2022/11/28 00:03:54;;;;;;;;;;;7.00;99.90;;;;;;5052823;28;19917;-87
2022/11/28 00:06:19;;;;;;;;;;;7.00;99.90;;;;;;5049549;28;19928;-75
2022/11/28 00:08:45;;;;;;;;;;;7.00;99.90;;;;;;5046314;28;19915;-75
2022/11/28 00:11:12;;;;;;;;;;;7.00;99.90;;;;;;5050042;28;19909;-75
2022/11/28 00:13:38;;;;;;;;;;;7.00;99.90;;;;;;5055249;28;19916;-75
2022/11/28 00:16:05;;;;;;;;;;;7.00;99.90;;;;;;5050944;28;20223;-82
2022/11/28 00:18:31;;;;;;;;;;;7.00;99.90;;;;;;5044439;28;19916;-75
2022/11/28 00:21:04;;;;;;;;;;;7.00;99.90;;;;;;5051227;28;19932;-74
2022/11/28 00:23:30;;;;;;;;;;;7.00;99.90;;;;;;5053760;28;19947;-84
2022/11/28 00:26:04;;;;;;;;;;;7.00;99.90;;;;;;5045420;28;20015;-74
2022/11/28 00:28:30;;;;;;;;;;;7.00;99.90;;;;;;5046897;28;19915;-74
2022/11/28 00:30:55;;;;;;;;;;;7.00;99.90;;;;;;5048232;28;19912;-74
2022/11/28 00:33:21;;;;;;;;;;;7.00;99.90;;;;;;5045304;28;19919;-75
2022/11/28 00:35:46;;;;;;;;;;;7.00;99.90;;;;;;5053481;28;19909;-75
2022/11/28 00:38:12;;;;;;;;;;;7.00;99.90;;;;;;5040813;28;19913;-75
2022/11/28 00:40:37;;;;;;;;;;;7.10;99.90;;;;;;5050226;28;19915;-75
2022/11/28 00:43:03;;;;;;;;;;;7.00;99.90;;;;;;5052626;28;19913;-82
2022/11/28 00:45:29;;;;;;;;;;;7.00;99.90;;;;;;5051107;28;19956;-75
2022/11/28 00:47:54;;;;;;;;;;;7.10;99.90;;;;;;5048657;28;19913;-74
2022/11/28 00:50:20;;;;;;;;;;;7.10;99.90;;;;;;5044694;28;20271;-74
2022/11/28 00:52:45;;;;;;;;;;;7.10;99.90;;;;;;5031391;28;20286;-75
2022/11/28 00:55:11;;;;;;;;;;;7.10;99.90;;;;;;5052923;28;19927;-74
2022/11/28 00:57:36;;;;;;;;;;;7.00;99.90;;;;;;5045832;28;19956;-75
2022/11/28 01:00:04;;;;;;;;;;;7.10;99.90;;;;;;5049087;28;19917;-74
2022/11/28 01:02:29;;;;;;;;;;;7.10;99.90;;;;;;5046775;28;19909;-74
2022/11/28 01:04:55;;;;;;;;;;;7.10;99.90;;;;;;5048062;28;20196;-74
2022/11/28 01:07:20;;;;;;;;;;;7.10;99.90;;;;;;5048195;28;20262;-84
2022/11/28 01:09:46;;;;;;;;;;;7.10;99.90;;;;;;5051215;28;19913;-79
2022/11/28 01:12:12;;;;;;;;;;;7.10;99.90;;;;;;5051290;28;19921;-74
2022/11/28 01:14:37;;;;;;;;;;;7.10;99.90;;;;;;5039217;28;19944;-74
2022/11/28 01:17:03;;;;;;;;;;;7.20;99.90;;;;;;5053537;28;19913;-74
2022/11/28 01:19:28;;;;;;;;;;;7.10;99.90;;;;;;5044809;28;20035;-73
2022/11/28 01:21:54;;;;;;;;;;;7.10;99.90;;;;;;5053835;28;19965;-75
2022/11/28 01:24:19;;;;;;;;;;;7.20;99.90;;;;;;5048626;28;20000;-74
2022/11/28 01:26:45;;;;;;;;;;;7.20;99.90;;;;;;5053441;28;19912;-74
2022/11/28 01:29:11;;;;;;;;;;;7.20;99.90;;;;;;5046712;28;19909;-74
2022/11/28 01:31:36;;;;;;;;;;;7.20;99.90;;;;;;5046809;28;19913;-79
2022/11/28 01:34:02;;;;;;;;;;;7.20;99.90;;;;;;5045786;28;19913;-91
2022/11/28 01:36:28;;;;;;;;;;;7.20;99.90;;;;;;5047916;28;20300;-74
2022/11/28 01:38:53;;;;;;;;;;;7.20;99.90;;;;;;5053197;28;20224;-75
2022/11/28 01:41:21;;;;;;;;;;;7.30;99.90;;;;;;5051213;28;20001;-74
2022/11/28 01:43:56;;;;;;;;;;;7.20;99.90;;;;;;5053447;28;19908;-75
2022/11/28 01:46:21;;;;;;;;;;;7.20;99.90;;;;;;5041286;28;19999;-74
2022/11/28 01:48:47;;;;;;;;;;;7.20;99.90;;;;;;5041101;28;20008;-74
2022/11/28 01:51:12;;;;;;;;;;;7.30;99.90;;;;;;5052548;28;19916;-75
2022/11/28 01:53:39;;;;;;;;;;;7.20;99.90;;;;;;5046633;28;20321;-75
2022/11/28 01:56:07;;;;;;;;;;;7.20;99.90;;;;;;5051256;28;19963;-74
2022/11/28 01:58:35;;;;;;;;;;;7.20;99.90;;;;;;5044763;28;19909;-85
2022/11/28 02:01:01;;;;;;;;;;;7.20;99.90;;;;;;5041090;28;19916;-87
2022/11/28 02:03:30;;;;;;;;;;;7.20;99.90;;;;;;5052374;28;20234;-77
2022/11/28 02:05:56;;;;;;;;;;;7.30;99.90;;;;;;5046203;28;19944;-85
2022/11/28 02:08:23;;;;;;;;;;;7.30;99.90;;;;;;5053874;28;19909;-87
2022/11/28 02:10:55;;;;;;;;;;;7.20;99.90;;;;;;5045405;28;19917;-75
2022/11/28 02:13:26;;;;;;;;;;;7.20;99.90;;;;;;5038186;28;19909;-91
2022/11/28 02:16:02;;;;;;;;;;;7.20;99.90;;;;;;5049405;28;20223;-92
2022/11/28 02:18:27;;;;;;;;;;;7.30;99.90;;;;;;5045695;28;19908;-85
2022/11/28 02:20:53;;;;;;;;;;;7.30;99.90;;;;;;5045119;28;19920;-82
2022/11/28 02:23:30;;;;;;;;;;;7.40;99.90;;;;;;5052229;28;19919;-86
2022/11/28 02:25:56;;;;;;;;;;;7.40;99.90;;;;;;5043512;28;19920;-81
2022/11/28 02:28:40;;;;;;;;;;;7.40;99.90;;;;;;5045847;28;20322;-87
2022/11/28 02:31:08;;;;;;;;;;;7.40;99.90;;;;;;5048418;28;19913;-87
2022/11/28 02:34:03;;;;;;;;;;;7.40;99.90;;;;;;5046935;28;19990;-87
2022/11/28 02:36:31;;;;;;;;;;;7.50;99.90;;;;;;4998024;28;19914;-90
2022/11/28 02:38:57;;;;;;;;;;;7.50;99.90;;;;;;5046987;28;19909;-75
2022/11/28 02:41:25;;;;;;;;;;;7.50;99.90;;;;;;5046297;28;20177;-86
2022/11/28 02:43:54;;;;;;;;;;;7.60;99.90;;;;;;5045026;28;19912;-91
2022/11/28 02:46:20;;;;;;;;;;;7.60;99.90;;;;;;5044410;28;19952;-86
2022/11/28 02:48:51;;;;;;;;;;;7.60;99.90;;;;;;5046848;28;20367;-86
2022/11/28 02:51:25;;;;;;;;;;;7.60;99.90;;;;;;5037715;28;19940;-86
2022/11/28 02:53:50;;;;;;;;;;;7.60;99.90;;;;;;5043068;28;19944;-86
2022/11/28 02:56:16;;;;;;;;;;;7.60;99.90;;;;;;5054691;28;19955;-84
2022/11/28 02:58:42;;;;;;;;;;;7.60;99.90;;;;;;5055313;28;20015;-88
2022/11/28 03:01:17;;;;;;;;;;;7.60;99.90;;;;;;5056355;28;20373;-85
2022/11/28 03:04:01;;;;;;;;;;;7.60;99.90;;;;;;5055424;28;19905;-88
2022/11/28 03:06:45;;;;;;;;;;;7.60;99.90;;;;;;5052655;28;19917;-87
2022/11/28 03:09:23;;;;;;;;;;;7.60;99.90;;;;;;5051462;28;19916;-90
2022/11/28 03:12:02;;;;;;;;;;;7.60;99.90;;;;;;5054311;28;19931;-86
2022/11/28 03:14:47;;;;;;;;;;;7.70;99.90;;;;;;5056237;28;19913;-81
2022/11/28 03:17:19;;;;;;;;;;;7.70;99.90;;;;;;5053998;28;19916;-89
2022/11/28 03:20:05;;;;;;;;;;;7.70;99.90;;;;;;5051381;28;19904;-87
2022/11/28 03:22:30;;;;;;;;;;;7.80;99.90;;;;;;5045577;28;19912;-88
2022/11/28 03:24:56;;;;;;;;;;;7.80;99.90;;;;;;5051590;28;19912;-86
2022/11/28 03:27:31;;;;;;;;;;;7.80;99.90;;;;;;5051448;28;19912;-85
2022/11/28 03:30:00;;;;;;;;;;;7.80;99.90;;;;;;5047331;28;19917;-82
2022/11/28 03:32:30;;;;;;;;;;;7.90;99.90;;;;;;5047765;28;19917;-90
2022/11/28 03:34:59;;;;;;;;;;;7.90;99.90;;;;;;5045809;28;19962;-88
2022/11/28 03:37:30;;;;;;;;;;;7.90;99.90;;;;;;5052314;28;19949;-86
2022/11/28 03:40:02;;;;;;;;;;;7.90;99.90;;;;;;5039910;28;20356;-89
2022/11/28 03:42:31;;;;;;;;;;;7.90;99.90;;;;;;5050616;28;19962;-92
2022/11/28 03:45:03;;;;;;;;;;;7.90;99.90;;;;;;5046734;28;19913;-78
2022/11/28 03:47:33;;;;;;;;;;;7.90;99.90;;;;;;5050863;28;19913;-80
2022/11/28 03:50:00;;;;;;;;;;;7.90;99.90;;;;;;5057864;28;19954;-86
2022/11/28 03:52:35;;;;;;;;;;;7.90;99.90;;;;;;5043951;28;19909;-84
2022/11/28 03:55:12;;;;;;;;;;;8.00;99.90;;;;;;5053975;28;20219;-75
2022/11/28 03:57:41;;;;;;;;;;;8.00;99.90;;;;;;5053804;28;19996;-88
2022/11/28 04:00:09;;;;;;;;;;;7.90;99.90;;;;;;5051207;28;19996;-81
2022/11/28 04:02:44;;;;;;;;;;;7.90;99.90;;;;;;5041279;28;19963;-86
2022/11/28 04:05:16;;;;;;;;;;;8.00;99.90;;;;;;5054710;28;19915;-89
2022/11/28 04:07:58;;;;;;;;;;;8.00;99.90;;;;;;5050624;28;19923;-81
2022/11/28 04:10:31;;;;;;;;;;;8.00;99.90;;;;;;5051523;28;19962;-84
2022/11/28 04:13:06;;;;;;;;;;;7.90;99.90;;;;;;5046661;28;19952;-76
2022/11/28 04:15:44;;;;;;;;;;;8.00;99.90;;;;;;5049104;28;20211;-86
2022/11/28 04:18:20;;;;;;;;;;;8.00;99.90;;;;;;5053624;28;19912;-79
2022/11/28 04:20:50;;;;;;;;;;;8.00;99.90;;;;;;5043718;28;19956;-89
2022/11/28 04:23:17;;;;;;;;;;;8.00;99.90;;;;;;5056102;28;19931;-83
2022/11/28 04:26:04;;;;;;;;;;;8.00;99.90;;;;;;5053169;28;20374;-85
2022/11/28 04:28:32;;;;;;;;;;;8.00;99.90;;;;;;5051284;28;19912;-81
2022/11/28 04:30:58;;;;;;;;;;;8.00;99.90;;;;;;5053091;28;19958;-83
2022/11/28 04:33:25;;;;;;;;;;;7.90;99.90;;;;;;5037149;28;20212;-83
2022/11/28 04:35:52;;;;;;;;;;;7.90;99.90;;;;;;5047403;28;19909;-82
2022/11/28 04:38:19;;;;;;;;;;;8.00;99.90;;;;;;5044643;28;19987;-82
2022/11/28 04:40:59;;;;;;;;;;;7.90;99.90;;;;;;5044828;28;19960;-84
2022/11/28 04:43:32;;;;;;;;;;;8.00;99.90;;;;;;5046349;28;20248;-87
2022/11/28 04:46:00;;;;;;;;;;;8.00;99.90;;;;;;5044345;28;20278;-83
2022/11/28 04:48:26;;;;;;;;;;;8.00;99.90;;;;;;5050574;28;19958;-83
2022/11/28 04:50:56;;;;;;;;;;;7.90;99.90;;;;;;5046833;28;19947;-84
2022/11/28 04:53:28;;;;;;;;;;;7.90;99.90;;;;;;5048095;28;20292;-79
2022/11/28 04:55:56;;;;;;;;;;;7.90;99.90;;;;;;5054251;28;19963;-83
2022/11/28 04:58:30;;;;;;;;;;;7.90;99.90;;;;;;5049305;28;19908;-81
2022/11/28 05:00:56;;;;;;;;;;;7.90;99.90;;;;;;5046619;28;20603;-81
2022/11/28 05:03:25;;;;;;;;;;;7.90;99.90;;;;;;5046170;28;19917;-78
2022/11/28 05:05:51;;;;;;;;;;;7.90;99.90;;;;;;5053198;28;20354;-76
2022/11/28 05:08:17;;;;;;;;;;;7.90;99.90;;;;;;5047514;28;19912;-79
2022/11/28 05:10:42;;;;;;;;;;;7.80;99.90;;;;;;5046770;28;20387;-80
2022/11/28 05:13:08;;;;;;;;;;;7.80;99.90;;;;;;5045343;28;19912;-84
2022/11/28 05:15:33;;;;;;;;;;;7.80;99.90;;;;;;5055077;28;20549;-82
2022/11/28 05:17:59;;;;;;;;;;;7.80;99.90;;;;;;5051038;28;19909;-85
2022/11/28 05:20:25;;;;;;;;;;;7.80;99.90;;;;;;5045069;28;19909;-82
2022/11/28 05:22:50;;;;;;;;;;;7.80;99.90;;;;;;5049574;28;20301;-81
2022/11/28 05:25:16;;;;;;;;;;;7.80;99.90;;;;;;5054658;28;19923;-75
2022/11/28 05:27:41;;;;;;;;;;;7.80;99.90;;;;;;5050189;28;19909;-80
2022/11/28 05:30:10;;;;;;;;;;;7.80;99.90;;;;;;5054108;28;19987;-81
2022/11/28 05:32:44;;;;;;;;;;;7.80;99.90;;;;;;5042539;28;20330;-83
2022/11/28 05:35:10;;;;;;;;;;;7.80;99.90;;;;;;5053571;28;19904;-84
2022/11/28 05:37:36;;;;;;;;;;;7.80;99.90;;;;;;5048255;28;20377;-85
2022/11/28 05:40:02;;;;;;;;;;;7.80;99.90;;;;;;5051694;28;19905;-86
2022/11/28 05:42:30;;;;;;;;;;;7.80;99.90;;;;;;5050842;28;19920;-75
2022/11/28 05:44:56;;;;;;;;;;;7.90;99.90;;;;;;5045573;28;20270;-84
2022/11/28 05:47:22;;;;;;;;;;;7.90;99.90;;;;;;5052579;28;19912;-83
2022/11/28 05:49:48;;;;;;;;;;;7.80;99.90;;;;;;5051974;28;19904;-75
2022/11/28 05:52:13;;;;;;;;;;;7.80;99.90;;;;;;5042244;28;20208;-84
2022/11/28 05:54:39;;;;;;;;;;;7.70;99.90;;;;;;5045261;28;19917;-83
2022/11/28 05:57:06;;;;;;;;;;;7.80;99.90;;;;;;5040763;28;19913;-86
2022/11/28 05:59:31;;;;;;;;;;;7.80;99.90;;;;;;5049550;28;19923;-83
2022/11/28 06:01:57;;;;;;;;;;;7.70;99.90;;;;;;5046354;28;19932;-80
2022/11/28 06:04:22;;;;;;;;;;;7.70;99.90;;;;;;5041662;28;20231;-82
2022/11/28 06:06:48;;;;;;;;;;;7.80;99.90;;;;;;5041899;28;19912;-81
2022/11/28 06:09:14;;;;;;;;;;;7.80;99.90;;;;;;5042086;28;20311;-81
2022/11/28 06:11:39;;;;;;;;;;;7.80;99.90;;;;;;5044887;28;19911;-74
2022/11/28 06:14:05;;;;;;;;;;;7.80;99.90;;;;;;5053124;28;19916;-81
2022/11/28 06:16:31;;;;;;;;;;;7.80;99.90;;;;;;5049408;28;19916;-81
2022/11/28 06:18:58;;;;;;;;;;;7.80;99.90;;;;;;5050232;28;19912;-77
2022/11/28 06:21:24;;;;;;;;;;;7.80;99.90;;;;;;5054000;28;19917;-81
2022/11/28 06:23:50;;;;;;;;;;;7.80;99.90;;;;;;5046155;28;19905;-81
2022/11/28 06:26:17;;;;;;;;;;;7.80;99.90;;;;;;5046865;28;19916;-81
2022/11/28 06:28:42;;;;;;;;;;;7.80;99.90;;;;;;5037628;28;19936;-84
2022/11/28 06:31:12;;;;;;;;;;;7.80;99.90;;;;;;5054238;28;19963;-81
2022/11/28 06:33:37;;;;;;;;;;;7.80;99.90;;;;;;5046897;28;19969;-81
2022/11/28 06:36:04;;;;;;;;;;;7.80;99.90;;;;;;5053620;28;19908;-82
2022/11/28 06:38:30;;;;;;;;;;;7.70;99.90;;;;;;5049730;28;20614;-82
2022/11/28 06:40:56;;;;;;;;;;;7.80;99.90;;;;;;5049239;28;19921;-83
2022/11/28 06:43:22;;;;;;;;;;;7.80;99.90;;;;;;5050223;28;19948;-82
2022/11/28 06:45:47;;;;;;;;;;;7.80;99.90;;;;;;5043525;28;20350;-75
2022/11/28 06:48:13;;;;;;;;;;;7.80;99.90;;;;;;5045137;28;19904;-83
2022/11/28 06:50:38;;;;;;;;;;;7.80;99.90;;;;;;5057476;28;19912;-81
2022/11/28 06:53:04;;;;;;;;;;;7.80;99.90;;;;;;5055345;28;19905;-82
2022/11/28 06:55:29;;;;;;;;;;;7.80;99.90;;;;;;5052919;28;19987;-74
2022/11/28 06:57:55;;;;;;;;;;;7.90;99.90;;;;;;5052291;28;19913;-82
2022/11/28 07:00:21;;;;;;;;;;;7.90;99.90;;;;;;5053559;28;19909;-81
2022/11/28 07:02:46;;;;;;;;;;;7.80;99.90;;;;;;5048652;28;19912;-73
2022/11/28 07:05:15;;;;;;;;;;;7.80;99.90;;;;;;5056658;28;20204;-82
2022/11/28 07:07:40;;;;;;;;;;;7.80;99.90;;;;;;5055092;28;19965;-81
2022/11/28 07:10:06;;;;;;;;;;;7.80;99.90;;;;;;5052307;28;19917;-84
2022/11/28 07:12:33;;;;;;;;;;;7.90;99.90;;;;;;5053817;28;19924;-81
2022/11/28 07:14:59;;;;;;;;;;;8.00;99.90;;;;;;5055462;28;19919;-82
2022/11/28 07:17:24;;;;;;;;;;;8.00;99.90;;;;;;5052894;28;20292;-75
2022/11/28 07:19:50;;;;;;;;;;;7.90;99.90;;;;;;5055141;28;20211;-74
2022/11/28 07:22:15;;;;;;;;;;;7.90;99.90;;;;;;5055755;28;20189;-81
2022/11/28 07:24:41;;;;;;;;;;;7.90;99.90;;;;;;5051537;28;20314;-82
2022/11/28 07:27:06;;;;;;;;;;;7.90;99.90;;;;;;5056163;28;19916;-77
2022/11/28 07:29:35;;;;;;;;;;;7.90;99.90;;;;;;5053616;28;19909;-82
2022/11/28 07:32:05;;;;;;;;;;;7.80;99.90;;;;;;5046298;28;19955;-82
2022/11/28 07:34:31;;;;;;;;;;;7.80;99.90;;;;;;5054892;28;19904;-81
2022/11/28 07:36:56;;;;;;;;;;;7.90;99.90;;;;;;5055449;28;19927;-75
2022/11/28 07:39:22;;;;;;;;;;;7.90;99.90;;;;;;5050221;28;19905;-80
2022/11/28 07:41:48;;;;;;;;;;;7.90;99.90;;;;;;5054252;28;19916;-81
2022/11/28 07:44:16;;;;;;;;;;;8.00;99.90;;;;;;5052690;28;19951;-81
2022/11/28 07:46:43;;;;;;;;;;;7.90;99.90;;;;;;5054423;28;19912;-84
2022/11/28 07:49:08;;;;;;;;;;;8.00;99.90;;;;;;5055041;28;20307;-75
2022/11/28 07:51:34;;;;;;;;;;;8.00;99.90;;;;;;5052282;28;19905;-81
2022/11/28 07:54:00;;;;;;;;;;;8.00;99.90;;;;;;5056294;28;19953;-81
2022/11/28 07:56:28;;;;;;;;;;;8.00;99.90;;;;;;5053826;28;19912;-84
2022/11/28 07:58:54;;;;;;;;;;;8.00;99.90;;;;;;5056565;28;20280;-82
2022/11/28 08:01:23;;;;;;;;;;;8.00;99.90;;;;;;5047894;28;19919;-74
2022/11/28 08:03:50;;;;;;;;;;;8.00;99.90;;;;;;5052124;28;19991;-75
2022/11/28 08:06:17;;;;;;;;;;;8.00;99.90;;;;;;5053949;28;20266;-82
2022/11/28 08:08:44;;;;;;;;;;;8.00;99.90;;;;;;5049262;28;19995;-74
2022/11/28 08:11:10;;;;;;;;;;;8.00;99.90;;;;;;5052715;28;19908;-74
2022/11/28 08:13:36;;;;;;;;;;;8.00;99.90;;;;;;5052024;28;19920;-83
2022/11/28 08:16:03;;;;;;;;;;;8.00;99.90;;;;;;5051694;28;19904;-83
2022/11/28 08:18:28;;;;;;;;;;;8.00;99.90;;;;;;5052044;28;19920;-75
2022/11/28 08:21:01;;;;;;;;;;;8.10;99.90;;;;;;5051263;28;19909;-74
2022/11/28 08:23:27;;;;;;;;;;;8.00;99.90;;;;;;5047014;28;19917;-77
2022/11/28 08:25:52;;;;;;;;;;;8.00;99.90;;;;;;5052225;28;20255;-74
2022/11/28 08:28:18;;;;;;;;;;;8.00;99.90;;;;;;5054632;28;19943;-83
2022/11/28 08:30:43;;;;;;;;;;;8.00;99.90;;;;;;5053305;28;19940;-82
2022/11/28 08:33:09;;;;;;;;;;;8.00;99.90;;;;;;5046914;28;20315;-75
2022/11/28 08:35:37;;;;;;;;;;;8.10;99.90;;;;;;5049823;28;19909;-83
2022/11/28 08:38:03;;;;;;;;;;;8.10;99.90;;;;;;5049151;28;19909;-75
2022/11/28 08:40:28;;;;;;;;;;;8.20;99.90;;;;;;5047758;28;19909;-80
2022/11/28 08:42:54;;;;;;;;;;;8.20;99.90;;;;;;5044657;28;19909;-81
2022/11/28 08:45:20;;;;;;;;;;;8.30;99.90;;;;;;5053045;28;19915;-74
2022/11/28 08:47:45;;;;;;;;;;;8.20;99.90;;;;;;5054033;28;19919;-82
2022/11/28 08:50:11;;;;;;;;;;;8.20;99.90;;;;;;5052743;28;19909;-81
2022/11/28 08:52:36;;;;;;;;;;;8.20;99.90;;;;;;5048530;28;20035;-82
2022/11/28 08:55:02;;;;;;;;;;;8.20;99.90;;;;;;5052193;28;19955;-82
2022/11/28 08:57:27;;;;;;;;;;;8.20;99.90;;;;;;5049835;28;20406;-75
2022/11/28 08:59:53;;;;;;;;;;;8.30;99.90;;;;;;5052700;28;19917;-81
2022/11/28 09:02:18;;;;;;;;;;;8.30;99.90;;;;;;5045805;28;20189;-75
2022/11/28 09:04:44;;;;;;;;;;;8.30;99.90;;;;;;5048621;28;19913;-82
2022/11/28 09:07:10;;;;;;;;;;;8.30;99.90;;;;;;5048728;28;19962;-83
2022/11/28 09:09:35;;;;;;;;;;;8.30;99.90;;;;;;5051362;28;19927;-81
2022/11/28 09:12:01;;;;;;;;;;;8.40;99.90;;;;;;5054297;28;19919;-84
2022/11/28 09:14:26;;;;;;;;;;;8.40;99.90;;;;;;5053868;28;19920;-83
2022/11/28 09:16:52;;;;;;;;;;;8.50;99.90;;;;;;5053199;28;19927;-82
2022/11/28 09:19:17;;;;;;;;;;;8.50;99.90;;;;;;5053141;28;19908;-75
2022/11/28 09:21:43;;;;;;;;;;;8.50;99.90;;;;;;5054700;28;20327;-81
2022/11/28 09:24:08;;;;;;;;;;;8.50;99.90;;;;;;5050003;28;19913;-82
2022/11/28 09:26:34;;;;;;;;;;;8.50;99.90;;;;;;5050781;28;19917;-82
2022/11/28 09:28:59;;;;;;;;;;;8.50;99.90;;;;;;5047785;28;19966;-75
2022/11/28 09:31:25;;;;;;;;;;;8.50;99.90;;;;;;5052511;28;19905;-81
2022/11/28 09:33:51;;;;;;;;;;;8.50;99.90;;;;;;5041002;28;19954;-81
2022/11/28 09:36:18;;;;;;;;;;;8.60;99.90;;;;;;5043536;28;19916;-82
2022/11/28 09:38:44;;;;;;;;;;;8.60;99.90;;;;;;5051132;28;19917;-81
2022/11/28 09:41:28;;;;;;;;;;;8.60;99.90;;;;;;5050411;28;19912;-74
2022/11/28 09:43:59;;;;;;;;;;;8.60;99.90;;;;;;5053550;28;20038;-80
2022/11/28 09:46:27;;;;;;;;;;;8.60;99.90;;;;;;5046071;28;19920;-82
2022/11/28 09:48:54;;;;;;;;;;;8.60;99.90;;;;;;5051966;28;19913;-81
2022/11/28 09:51:33;;;;;;;;;;;8.70;99.90;;;;;;5039476;28;19908;-74
2022/11/28 09:54:04;;;;;;;;;;;8.70;99.90;;;;;;5048281;28;19919;-82
2022/11/28 09:56:30;;;;;;;;;;;8.70;99.90;;;;;;5045980;28;19967;-75
2022/11/28 09:58:57;;;;;;;;;;;8.70;99.90;;;;;;5050495;28;19909;-82
2022/11/28 10:01:28;;;;;;;;;;;8.70;99.90;;;;;;5051357;28;19908;-81
2022/11/28 10:03:57;;;;;;;;;;;8.70;99.90;;;;;;5049929;28;19995;-81
2022/11/28 10:06:43;;;;;;;;;;;8.80;99.90;;;;;;5057335;28;19959;-81
2022/11/28 10:09:28;;;;;;;;;;;8.80;99.90;;;;;;5038470;28;20011;-81
2022/11/28 10:12:03;;;;;;;;;;;8.90;99.90;;;;;;5041867;28;20000;-82
2022/11/28 10:14:55;;;;;;;;;;;8.90;99.90;;;;;;5054238;28;20204;-75
2022/11/28 10:17:31;;;;;;;;;;;8.90;99.90;;;;;;5050718;28;19913;-83
2022/11/28 10:20:23;;;;;;;;;;;8.90;99.90;;;;;;5051675;28;20339;-77
2022/11/28 10:22:48;;;;;;;;;;;9.00;99.90;;;;;;5046433;28;19908;-74
2022/11/28 10:25:20;;;;;;;;;;;9.00;99.90;;;;;;5052830;28;19958;-81
2022/11/28 10:27:46;;;;;;;;;;;9.10;99.90;;;;;;5045880;28;19921;-83
2022/11/28 10:30:14;;;;;;;;;;;9.10;99.90;;;;;;5042879;28;19932;-84
2022/11/28 10:32:42;;;;;;;;;;;9.10;99.90;;;;;;5056622;28;20318;-81
2022/11/28 10:35:14;;;;;;;;;;;9.10;99.90;;;;;;5051442;28;19925;-80
2022/11/28 10:37:39;;;;;;;;;;;9.10;99.90;;;;;;5060481;28;19961;-74
2022/11/28 10:40:16;;;;;;;;;;;9.10;99.90;;;;;;5042300;28;19916;-79
2022/11/28 10:43:07;;;;;;;;;;;9.10;99.90;;;;;;5044370;28;19912;-73
2022/11/28 10:45:33;;;;;;;;;;;9.10;99.90;;;;;;5042867;28;19956;-80
2022/11/28 10:48:07;;;;;;;;;;;9.10;99.90;;;;;;5054276;28;20311;-74
2022/11/28 10:50:42;;;;;;;;;;;9.10;99.90;;;;;;5055102;28;19995;-74
2022/11/28 10:53:26;;;;;;;;;;;9.10;99.90;;;;;;5047407;28;19921;-75
2022/11/28 10:55:58;;;;;;;;;;;9.10;99.90;;;;;;5043926;28;19925;-81
2022/11/28 10:58:29;;;;;;;;;;;9.20;99.90;;;;;;5056799;28;19916;-81
2022/11/28 11:00:56;;;;;;;;;;;9.20;99.90;;;;;;5057868;28;20185;-81
2022/11/28 11:03:26;;;;;;;;;;;9.20;99.90;;;;;;5050356;28;20208;-81
2022/11/28 11:05:52;;;;;;;;;;;9.30;99.90;;;;;;5041360;28;19913;-74
2022/11/28 11:08:25;;;;;;;;;;;9.30;99.90;;;;;;5048416;28;20480;-74
2022/11/28 11:10:50;;;;;;;;;;;9.30;99.90;;;;;;5049404;28;19908;-81
2022/11/28 11:13:16;;;;;;;;;;;9.30;99.90;;;;;;5050067;28;19909;-80
2022/11/28 11:15:44;;;;;;;;;;;9.30;99.90;;;;;;5056296;28;19920;-82
2022/11/28 11:18:36;;;;;;;;;;;9.20;99.90;;;;;;5055721;28;19984;-84
2022/11/28 11:21:15;;;;;;;;;;;9.30;99.90;;;;;;5021920;28;19917;-82
2022/11/28 11:23:41;;;;;;;;;;;9.30;99.90;;;;;;5049794;28;19954;-74
2022/11/28 11:26:10;;;;;;;;;;;9.30;99.90;;;;;;5049564;28;20011;-74
2022/11/28 11:28:42;;;;;;;;;;;9.30;99.90;;;;;;5054002;28;20288;-81
2022/11/28 11:31:23;;;;;;;;;;;9.40;99.90;;;;;;5055631;28;20198;-74
2022/11/28 11:33:51;;;;;;;;;;;9.40;99.90;;;;;;5045446;28;19927;-81
2022/11/28 11:36:30;;;;;;;;;;;9.40;99.90;;;;;;5048132;28;20003;-75
2022/11/28 11:39:04;;;;;;;;;;;9.40;99.90;;;;;;5053417;28;20003;-81
2022/11/28 11:41:30;;;;;;;;;;;9.30;99.90;;;;;;5046988;28;20258;-83
2022/11/28 11:44:15;;;;;;;;;;;9.40;99.90;;;;;;5051302;28;19935;-83
2022/11/28 11:46:50;;;;;;;;;;;9.40;99.90;;;;;;5052317;28;19913;-79
2022/11/28 11:49:29;;;;;;;;;;;9.40;99.90;;;;;;5053587;28;19908;-81
2022/11/28 11:51:56;;;;;;;;;;;9.40;99.90;;;;;;5046279;28;19913;-81
2022/11/28 11:54:22;;;;;;;;;;;9.40;99.90;;;;;;5050591;28;19917;-81
2022/11/28 11:56:49;;;;;;;;;;;9.50;99.90;;;;;;5047689;28;20016;-75
2022/11/28 11:59:25;;;;;;;;;;;9.60;99.90;;;;;;5048595;28;19905;-80
2022/11/28 12:01:54;;;;;;;;;;;9.60;99.90;;;;;;5050909;28;20205;-81
2022/11/28 12:04:26;;;;;;;;;;;9.70;99.90;;;;;;5058874;28;19905;-75
2022/11/28 12:06:52;;;;;;;;;;;9.70;99.90;;;;;;5053586;28;19919;-82
2022/11/28 12:09:37;;;;;;;;;;;9.70;99.90;;;;;;5049057;28;19939;-74
2022/11/28 12:12:14;;;;;;;;;;;9.80;99.90;;;;;;5052527;28;19955;-81
2022/11/28 12:14:40;;;;;;;;;;;9.80;99.90;;;;;;5052335;28;19994;-81
2022/11/28 12:17:15;;;;;;;;;;;9.80;99.90;;;;;;5046987;28;19976;-81
2022/11/28 12:20:08;;;;;;;;;;;9.80;99.90;;;;;;5050384;28;19909;-81
2022/11/28 12:22:34;;;;;;;;;;;9.90;99.90;;;;;;5051348;28;19913;-80
2022/11/28 12:25:03;;;;;;;;;;;9.90;99.90;;;;;;5048298;28;19916;-80
2022/11/28 12:27:41;;;;;;;;;;;9.90;99.90;;;;;;5050510;28;20223;-80
2022/11/28 12:30:10;;;;;;;;;;;9.90;99.90;;;;;;5053563;28;19963;-79
2022/11/28 12:32:51;;;;;;;;;;;10.00;99.90;;;;;;5050484;28;20035;-74
2022/11/28 12:35:29;;;;;;;;;;;10.00;99.90;;;;;;5046797;28;19968;-79
2022/11/28 12:37:57;;;;;;;;;;;10.00;99.90;;;;;;5051035;28;20058;-80
2022/11/28 12:40:33;;;;;;;;;;;10.10;99.90;;;;;;5053500;28;19912;-81
2022/11/28 12:43:16;;;;;;;;;;;10.10;99.90;;;;;;5020247;28;19919;-81
2022/11/28 12:46:01;;;;;;;;;;;10.20;99.90;;;;;;5059287;28;20007;-81
2022/11/28 12:48:30;;;;;;;;;;;10.20;99.90;;;;;;5019048;28;20220;-75
2022/11/28 12:51:07;;;;;;;;;;;10.20;99.90;;;;;;5052628;28;19939;-79
2022/11/28 12:53:45;;;;;;;;;;;10.30;99.90;;;;;;5054485;28;19963;-80
2022/11/28 12:56:13;;;;;;;;;;;10.20;99.90;;;;;;5046839;28;19917;-80
2022/11/28 12:58:50;;;;;;;;;;;10.30;99.90;;;;;;5052600;28;20003;-80
2022/11/28 13:01:34;;;;;;;;;;;10.20;99.90;;;;;;5041184;28;19911;-80
2022/11/28 13:04:12;;;;;;;;;;;10.20;99.90;;;;;;5048197;28;19912;-80
2022/11/28 13:06:49;;;;;;;;;;;10.20;99.90;;;;;;5046393;28;20004;-74
2022/11/28 13:09:18;;;;;;;;;;;10.20;99.90;;;;;;5051095;28;19909;-79
2022/11/28 13:12:13;;;;;;;;;;;10.20;99.90;;;;;;5038285;28;19975;-80
2022/11/28 13:14:41;;;;;;;;;;;10.20;99.90;;;;;;5035828;28;19919;-79
2022/11/28 13:17:22;;;;;;;;;;;10.20;99.90;;;;;;5047243;28;20231;-74
2022/11/28 13:19:47;;;;;;;;;;;10.20;99.90;;;;;;5050617;28;19917;-74
2022/11/28 13:22:14;;;;;;;;;;;10.20;99.90;;;;;;5052489;28;19917;-80
2022/11/28 13:24:46;;;;;;;;;;;10.20;99.90;;;;;;5050505;28;19935;-80
2022/11/28 13:27:15;;;;;;;;;;;10.30;99.90;;;;;;5052986;28;20311;-75
2022/11/28 13:29:59;;;;;;;;;;;10.40;99.90;;;;;;5050114;28;19962;-77
2022/11/28 13:32:24;;;;;;;;;;;10.40;99.90;;;;;;5049008;28;20311;-80
2022/11/28 13:34:50;;;;;;;;;;;10.40;99.90;;;;;;5054042;28;19999;-81
2022/11/28 13:37:29;;;;;;;;;;;10.40;99.90;;;;;;5049393;28;19908;-80
2022/11/28 13:40:16;;;;;;;;;;;10.40;99.90;;;;;;5049376;28;20003;-74
2022/11/28 13:42:45;;;;;;;;;;;10.40;99.90;;;;;;5044090;28;19912;-80
2022/11/28 13:45:29;;;;;;;;;;;10.40;99.90;;;;;;5053019;28;19909;-81
2022/11/28 13:47:55;;;;;;;;;;;10.40;99.90;;;;;;5040547;28;19956;-80
2022/11/28 13:50:37;;;;;;;;;;;10.30;99.90;;;;;;5049978;28;19943;-74
2022/11/28 13:53:05;;;;;;;;;;;10.30;99.90;;;;;;5041152;28;19913;-74
2022/11/28 13:55:43;;;;;;;;;;;10.20;99.90;;;;;;5044222;28;19923;-81
2022/11/28 13:58:30;;;;;;;;;;;10.20;99.90;;;;;;5045830;28;19913;-75
2022/11/28 14:01:08;;;;;;;;;;;10.20;99.90;;;;;;5046444;28;19963;-74
2022/11/28 14:03:35;;;;;;;;;;;10.20;99.90;;;;;;5045288;28;19920;-80
2022/11/28 14:06:03;;;;;;;;;;;10.10;99.90;;;;;;5049513;28;20211;-73
2022/11/28 14:08:34;;;;;;;;;;;10.10;99.90;;;;;;5052407;28;19912;-74
2022/11/28 14:11:00;;;;;;;;;;;10.10;99.90;;;;;;5053767;28;19919;-80
2022/11/28 14:13:32;;;;;;;;;;;10.10;99.90;;;;;;5049038;28;20189;-80
2022/11/28 14:16:04;;;;;;;;;;;10.10;99.90;;;;;;5049555;28;19912;-74
2022/11/28 14:18:33;;;;;;;;;;;10.00;99.90;;;;;;5051426;28;20604;-73
2022/11/28 14:21:03;;;;;;;;;;;10.00;99.90;;;;;;5038409;28;19952;-74
2022/11/28 14:23:38;;;;;;;;;;;10.00;99.90;;;;;;5046007;28;19913;-81
2022/11/28 14:26:11;;;;;;;;;;;10.00;99.90;;;;;;5049583;28;20312;-80
2022/11/28 14:28:39;;;;;;;;;;;10.00;99.90;;;;;;5050824;28;19962;-74
2022/11/28 14:31:16;;;;;;;;;;;10.10;99.90;;;;;;5049927;28;20209;-81
2022/11/28 14:33:43;;;;;;;;;;;10.10;99.90;;;;;;5048737;28;19909;-81
2022/11/28 14:36:11;;;;;;;;;;;10.10;99.90;;;;;;5039613;28;19995;-74
2022/11/28 14:38:40;;;;;;;;;;;10.10;99.90;;;;;;5046952;28;20132;-81
2022/11/28 14:41:10;;;;;;;;;;;10.00;99.90;;;;;;5043259;28;20011;-81
2022/11/28 14:43:44;;;;;;;;;;;10.00;99.90;;;;;;5043332;28;19909;-81